Time,TemperatureF,DewpointF,PressureIn,WindDirection,WindDirectionDegrees,WindSpeedMPH,WindSpeedGustMPH,Humidity,HourlyPrecipIn,Conditions,Clouds,dailyrainin,SoftwareType,DateUTC
2013-04-29 00:00:00,51.4,21.8,29.82,WSW,248,5.8,5.8,31,0.00,,---,0.00,VWS V14.01,2013-04-29 07:00:00,
2013-04-29 00:05:00,51.3,21.7,29.82,West,270,5.4,5.4,31,0.00,,---,0.00,VWS V14.01,2013-04-29 07:05:00,
2013-04-29 00:10:00,51.1,22.3,29.82,SW,225,5.8,5.8,32,0.00,,---,0.00,VWS V14.01,2013-04-29 07:10:00,
2013-04-29 00:15:00,51.1,22.3,29.82,SW,225,8.5,8.5,32,0.00,,---,0.00,VWS V14.01,2013-04-29 07:15:00,
2013-04-29 00:20:00,50.9,22.1,29.82,WNW,292,2.0,2.0,32,0.00,,---,0.00,VWS V14.01,2013-04-29 07:20:00,
2013-04-29 00:25:00,50.7,22.7,29.82,WNW,292,7.2,7.2,33,0.00,,---,0.00,VWS V14.01,2013-04-29 07:25:00,
2013-04-29 00:30:00,50.7,22.7,29.82,South,180,7.4,7.4,33,0.00,,---,0.00,VWS V14.01,2013-04-29 07:30:00,
2013-04-29 00:35:00,50.5,23.2,29.82,WSW,248,6.3,6.3,34,0.00,,---,0.00,VWS V14.01,2013-04-29 07:35:00,
2013-04-29 00:41:00,50.5,23.2,29.82,WSW,248,3.4,3.4,34,0.00,,---,0.00,VWS V14.01,2013-04-29 07:41:00,
2013-04-29 00:46:00,50.4,23.8,29.82,WSW,248,4.7,4.7,35,0.00,,---,0.00,VWS V14.01,2013-04-29 07:46:00,
2013-04-29 00:51:00,50.4,24.4,29.82,West,270,8.5,8.5,36,0.00,,---,0.00,VWS V14.01,2013-04-29 07:51:00,
2013-04-29 00:56:00,50.2,24.3,29.82,WSW,248,9.6,9.6,36,0.00,,---,0.00,VWS V14.01,2013-04-29 07:56:00,
2013-04-29 01:01:00,50.2,24.3,29.82,WSW,248,5.8,5.8,36,0.00,,---,0.00,VWS V14.01,2013-04-29 08:01:00,
2013-04-29 01:06:00,50.2,24.3,29.79,SW,225,4.5,4.5,36,0.00,,---,0.00,VWS V14.01,2013-04-29 08:06:00,
2013-04-29 01:11:00,50.2,24.9,29.79,WSW,248,5.4,5.4,37,0.00,,---,0.00,VWS V14.01,2013-04-29 08:11:00,
2013-04-29 01:16:00,50.0,24.8,29.79,NNW,338,1.1,1.1,37,0.00,,---,0.00,VWS V14.01,2013-04-29 08:16:00,
2013-04-29 01:21:00,50.0,24.8,29.82,NW,315,1.6,1.6,37,0.00,,---,0.00,VWS V14.01,2013-04-29 08:21:00,
2013-04-29 01:26:00,50.0,24.8,29.82,SW,225,7.2,7.2,37,0.00,,---,0.00,VWS V14.01,2013-04-29 08:26:00,
2013-04-29 01:31:00,49.8,25.2,29.82,West,270,2.7,2.7,38,0.00,,---,0.00,VWS V14.01,2013-04-29 08:31:00,
2013-04-29 01:36:00,49.8,25.2,29.82,WSW,248,1.1,1.1,38,0.00,,---,0.00,VWS V14.01,2013-04-29 08:36:00,
2013-04-29 01:41:00,49.8,25.2,29.82,WSW,248,4.9,4.9,38,0.00,,---,0.00,VWS V14.01,2013-04-29 08:41:00,
2013-04-29 01:46:00,49.6,25.1,29.82,WSW,248,4.7,4.7,38,0.00,,---,0.00,VWS V14.01,2013-04-29 08:46:00,
2013-04-29 01:51:00,49.6,25.7,29.82,South,180,4.9,4.9,39,0.00,,---,0.00,VWS V14.01,2013-04-29 08:51:00,
2013-04-29 01:56:00,49.5,25.5,29.82,SSW,202,3.1,3.1,39,0.00,,---,0.00,VWS V14.01,2013-04-29 08:56:00,
2013-04-29 02:02:00,49.5,25.5,29.82,WNW,292,8.1,8.1,39,0.00,,---,0.00,VWS V14.01,2013-04-29 09:02:00,
2013-04-29 02:07:00,49.5,25.5,29.76,WSW,248,4.0,4.0,39,0.00,,---,0.00,VWS V14.01,2013-04-29 09:07:00,
2013-04-29 02:12:00,49.5,26.2,29.76,West,270,9.6,9.6,40,0.00,,---,0.00,VWS V14.01,2013-04-29 09:12:00,
2013-04-29 02:17:00,49.5,26.2,29.76,West,270,7.2,7.2,40,0.00,,---,0.00,VWS V14.01,2013-04-29 09:17:00,
2013-04-29 02:22:00,49.3,26.0,29.79,WSW,248,8.7,8.7,40,0.00,,---,0.00,VWS V14.01,2013-04-29 09:22:00,
2013-04-29 02:27:00,49.3,26.0,29.79,SSW,202,6.5,6.5,40,0.00,,---,0.00,VWS V14.01,2013-04-29 09:27:00,
2013-04-29 02:32:00,49.1,25.8,29.79,WSW,248,6.0,6.0,40,0.00,,---,0.00,VWS V14.01,2013-04-29 09:32:00,
2013-04-29 02:37:00,48.9,26.3,29.74,WSW,248,2.9,2.9,41,0.00,,---,0.00,VWS V14.01,2013-04-29 09:37:00,
2013-04-29 02:42:00,48.9,26.3,29.74,SW,225,3.6,3.6,41,0.00,,---,0.00,VWS V14.01,2013-04-29 09:42:00,
2013-04-29 02:47:00,48.7,26.7,29.74,WSW,248,6.0,6.0,42,0.00,,---,0.00,VWS V14.01,2013-04-29 09:47:00,
2013-04-29 02:52:00,48.6,26.5,29.76,SW,225,14.5,14.5,42,0.00,,---,0.00,VWS V14.01,2013-04-29 09:52:00,
2013-04-29 02:57:00,48.4,26.4,29.76,West,270,4.9,4.9,42,0.00,,---,0.00,VWS V14.01,2013-04-29 09:57:00,
2013-04-29 03:02:00,48.2,26.8,29.76,SW,225,11.2,11.2,43,0.00,,---,0.00,VWS V14.01,2013-04-29 10:02:00,
2013-04-29 03:07:00,48.2,26.8,29.76,NNW,338,3.1,3.1,43,0.00,,---,0.00,VWS V14.01,2013-04-29 10:07:00,
2013-04-29 03:12:00,48.0,27.2,29.76,SW,225,3.4,3.4,44,0.00,,---,0.00,VWS V14.01,2013-04-29 10:12:00,
2013-04-29 03:18:00,47.8,27.0,29.76,SSW,202,4.3,4.3,44,0.00,,---,0.00,VWS V14.01,2013-04-29 10:18:00,
2013-04-29 03:23:00,47.7,27.4,29.74,WNW,292,2.7,2.7,45,0.00,,---,0.00,VWS V14.01,2013-04-29 10:23:00,
2013-04-29 03:28:00,47.5,27.2,29.74,SSE,158,4.9,4.9,45,0.00,,---,0.00,VWS V14.01,2013-04-29 10:28:00,
2013-04-29 03:33:00,47.3,27.6,29.74,WSW,248,4.0,4.0,46,0.00,,---,0.00,VWS V14.01,2013-04-29 10:33:00,
2013-04-29 03:38:00,47.3,27.6,29.74,SW,225,4.0,4.0,46,0.00,,---,0.00,VWS V14.01,2013-04-29 10:38:00,
2013-04-29 03:43:00,47.1,27.9,29.74,WSW,248,4.0,4.0,47,0.00,,---,0.00,VWS V14.01,2013-04-29 10:43:00,
2013-04-29 03:48:00,46.9,27.8,29.74,SSW,202,4.0,4.0,47,0.00,,---,0.00,VWS V14.01,2013-04-29 10:48:00,
2013-04-29 03:53:00,46.8,27.6,29.74,WSW,248,6.0,6.0,47,0.00,,---,0.00,VWS V14.01,2013-04-29 10:53:00,
2013-04-29 03:58:00,46.8,28.1,29.74,SW,225,5.6,5.6,48,0.00,,---,0.00,VWS V14.01,2013-04-29 10:58:00,
2013-04-29 04:03:00,46.8,28.1,29.74,West,270,5.8,5.8,48,0.00,,---,0.00,VWS V14.01,2013-04-29 11:03:00,
2013-04-29 04:08:00,46.6,28.0,29.74,SW,225,3.4,3.4,48,0.00,,---,0.00,VWS V14.01,2013-04-29 11:08:00,
2013-04-29 04:13:00,46.6,28.5,29.74,NW,315,4.7,4.7,49,0.00,,---,0.00,VWS V14.01,2013-04-29 11:13:00,
2013-04-29 04:18:00,46.2,28.1,29.74,West,270,3.4,3.4,49,0.00,,---,0.00,VWS V14.01,2013-04-29 11:18:00,
2013-04-29 04:24:00,46.2,28.6,29.74,SW,225,4.0,4.0,50,0.00,,---,0.00,VWS V14.01,2013-04-29 11:24:00,
2013-04-29 04:29:00,46.0,28.5,29.74,WSW,248,4.3,4.3,50,0.00,,---,0.00,VWS V14.01,2013-04-29 11:29:00,
2013-04-29 04:34:00,46.0,28.9,29.71,WSW,248,6.3,6.3,51,0.00,,---,0.00,VWS V14.01,2013-04-29 11:34:00,
2013-04-29 04:39:00,46.0,28.9,29.71,West,270,25.3,25.3,51,0.00,,---,0.00,VWS V14.01,2013-04-29 11:39:00,
2013-04-29 04:44:00,46.2,29.6,29.71,SSW,202,7.6,7.6,52,0.00,,---,0.00,VWS V14.01,2013-04-29 11:44:00,
2013-04-29 04:49:00,46.2,29.6,29.71,WNW,292,5.8,5.8,52,0.00,,---,0.00,VWS V14.01,2013-04-29 11:49:00,
2013-04-29 04:55:00,46.4,29.8,29.71,SW,225,9.2,9.2,52,0.00,,---,0.00,VWS V14.01,2013-04-29 11:55:00,
2013-04-29 05:00:00,46.4,29.8,29.71,SSW,202,7.4,7.4,52,0.00,,---,0.00,VWS V14.01,2013-04-29 12:00:00,
2013-04-29 05:05:00,46.6,30.4,29.71,West,270,0.9,0.9,53,0.00,,---,0.00,VWS V14.01,2013-04-29 12:05:00,
2013-04-29 05:10:00,46.2,30.0,29.71,WSW,248,3.6,3.6,53,0.00,,---,0.00,VWS V14.01,2013-04-29 12:10:00,
2013-04-29 05:15:00,46.2,30.5,29.71,WSW,248,3.1,3.1,54,0.00,,---,0.00,VWS V14.01,2013-04-29 12:15:00,
2013-04-29 05:20:00,46.2,30.5,29.71,SSW,202,7.6,7.6,54,0.00,,---,0.00,VWS V14.01,2013-04-29 12:20:00,
2013-04-29 05:25:00,46.2,31.0,29.71,WSW,248,5.4,5.4,55,0.00,,---,0.00,VWS V14.01,2013-04-29 12:25:00,
2013-04-29 05:30:00,46.2,31.0,29.71,SSW,202,6.0,6.0,55,0.00,,---,0.00,VWS V14.01,2013-04-29 12:30:00,
2013-04-29 05:35:00,46.2,31.0,29.71,WSW,248,1.6,1.6,55,0.00,,---,0.00,VWS V14.01,2013-04-29 12:35:00,
2013-04-29 05:40:00,46.2,31.0,29.71,WSW,248,3.6,3.6,55,0.00,,---,0.00,VWS V14.01,2013-04-29 12:40:00,
2013-04-29 05:45:00,46.2,31.0,29.71,SW,225,6.3,6.3,55,0.00,,---,0.00,VWS V14.01,2013-04-29 12:45:00,
2013-04-29 05:50:00,46.2,31.4,29.68,WSW,248,6.5,6.5,56,0.00,,---,0.00,VWS V14.01,2013-04-29 12:50:00,
2013-04-29 05:55:00,46.4,31.6,29.68,WSW,248,6.0,6.0,56,0.00,,---,0.00,VWS V14.01,2013-04-29 12:55:00,
2013-04-29 06:01:00,46.4,31.6,29.68,SSW,202,4.0,4.0,56,0.00,,---,0.00,VWS V14.01,2013-04-29 13:01:00,
2013-04-29 06:06:00,46.4,32.0,29.68,SSW,202,4.3,4.3,57,0.00,,---,0.00,VWS V14.01,2013-04-29 13:06:00,
2013-04-29 06:11:00,46.8,32.3,29.68,SW,225,9.6,9.6,57,0.00,,---,0.00,VWS V14.01,2013-04-29 13:11:00,
2013-04-29 06:16:00,46.9,32.5,29.68,WSW,248,4.3,4.3,57,0.00,,---,0.00,VWS V14.01,2013-04-29 13:16:00,
2013-04-29 06:21:00,47.1,32.7,29.68,SW,225,2.7,2.7,57,0.00,,---,0.00,VWS V14.01,2013-04-29 13:21:00,
2013-04-29 06:26:00,47.1,32.7,29.68,WSW,248,2.7,2.7,57,0.00,,---,0.00,VWS V14.01,2013-04-29 13:26:00,
2013-04-29 06:31:00,47.3,32.8,29.68,West,270,7.4,7.4,57,0.00,,---,0.00,VWS V14.01,2013-04-29 13:31:00,
2013-04-29 06:36:00,47.3,32.8,29.68,SSW,202,3.6,3.6,57,0.00,,---,0.00,VWS V14.01,2013-04-29 13:36:00,
2013-04-29 06:41:00,47.8,32.9,29.68,WSW,248,4.9,4.9,56,0.00,,---,0.00,VWS V14.01,2013-04-29 13:41:00,
2013-04-29 06:46:00,48.7,33.3,29.68,WSW,248,5.6,5.6,55,0.00,,---,0.00,VWS V14.01,2013-04-29 13:46:00,
2013-04-29 06:51:00,49.1,33.2,29.71,WSW,248,5.4,5.4,54,0.00,,---,0.00,VWS V14.01,2013-04-29 13:51:00,
2013-04-29 06:56:00,49.6,33.2,29.71,WSW,248,10.7,10.7,53,0.00,,---,0.00,VWS V14.01,2013-04-29 13:56:00,
2013-04-29 07:01:00,49.8,33.4,29.71,West,270,3.6,3.6,53,0.00,,---,0.00,VWS V14.01,2013-04-29 14:01:00,
2013-04-29 07:06:00,50.2,32.8,29.68,West,270,12.3,12.3,51,0.00,,---,0.00,VWS V14.01,2013-04-29 14:06:00,
2013-04-29 07:11:00,50.2,32.8,29.68,West,270,6.5,6.5,51,0.00,,---,0.00,VWS V14.01,2013-04-29 14:11:00,
2013-04-29 07:17:00,50.5,32.6,29.68,WSW,248,4.0,4.0,50,0.00,,---,0.00,VWS V14.01,2013-04-29 14:17:00,
2013-04-29 07:22:00,50.5,32.6,29.71,SSW,202,6.3,6.3,50,0.00,,---,0.00,VWS V14.01,2013-04-29 14:22:00,
2013-04-29 07:27:00,50.5,32.6,29.71,SW,225,14.5,14.5,50,0.00,,---,0.00,VWS V14.01,2013-04-29 14:27:00,
2013-04-29 07:32:00,50.9,32.9,29.71,West,270,2.9,2.9,50,0.00,,---,0.00,VWS V14.01,2013-04-29 14:32:00,
2013-04-29 07:37:00,51.3,32.8,29.71,WSW,248,5.8,5.8,49,0.00,,---,0.00,VWS V14.01,2013-04-29 14:37:00,
2013-04-29 07:42:00,51.6,32.1,29.71,SW,225,8.5,8.5,47,0.00,,---,0.00,VWS V14.01,2013-04-29 14:42:00,
2013-04-29 07:47:00,51.6,32.1,29.71,WNW,292,7.2,7.2,47,0.00,,---,0.00,VWS V14.01,2013-04-29 14:47:00,
2013-04-29 07:52:00,51.8,30.0,29.71,WSW,248,23.0,23.0,43,0.00,,---,0.00,VWS V14.01,2013-04-29 14:52:00,
2013-04-29 07:57:00,52.0,29.0,29.71,West,270,13.2,13.2,41,0.00,,---,0.00,VWS V14.01,2013-04-29 14:57:00,
2013-04-29 08:02:00,52.2,28.6,29.71,West,270,10.7,10.7,40,0.00,,---,0.00,VWS V14.01,2013-04-29 15:02:00,
2013-04-29 08:07:00,52.0,27.2,29.71,WSW,248,13.4,13.4,38,0.00,,---,0.00,VWS V14.01,2013-04-29 15:07:00,
2013-04-29 08:12:00,52.5,27.7,29.71,WSW,248,17.7,17.7,38,0.00,,---,0.00,VWS V14.01,2013-04-29 15:12:00,
2013-04-29 08:17:00,52.9,28.0,29.71,WSW,248,15.2,15.2,38,0.00,,---,0.00,VWS V14.01,2013-04-29 15:17:00,
2013-04-29 08:22:00,52.5,27.0,29.68,NW,315,9.6,9.6,37,0.00,,---,0.00,VWS V14.01,2013-04-29 15:22:00,
2013-04-29 08:27:00,53.1,27.5,29.68,WSW,248,12.8,12.8,37,0.00,,---,0.00,VWS V14.01,2013-04-29 15:27:00,
2013-04-29 08:33:00,53.1,27.5,29.68,SW,225,6.0,6.0,37,0.00,,---,0.00,VWS V14.01,2013-04-29 15:33:00,
2013-04-29 08:38:00,53.2,27.0,29.71,West,270,3.1,3.1,36,0.00,,---,0.00,VWS V14.01,2013-04-29 15:38:00,
2013-04-29 08:43:00,53.1,26.8,29.71,West,270,9.6,9.6,36,0.00,,---,0.00,VWS V14.01,2013-04-29 15:43:00,
2013-04-29 08:48:00,53.1,26.8,29.71,WNW,292,11.0,11.0,36,0.00,,---,0.00,VWS V14.01,2013-04-29 15:48:00,
2013-04-29 08:53:00,54.3,25.9,29.71,West,270,5.8,5.8,33,0.00,,---,0.00,VWS V14.01,2013-04-29 15:53:00,
2013-04-29 08:58:00,53.8,24.6,29.71,NW,315,8.1,8.1,32,0.00,,---,0.00,VWS V14.01,2013-04-29 15:58:00,
2013-04-29 09:03:00,54.3,24.4,29.71,WSW,248,17.7,17.7,31,0.00,,---,0.00,VWS V14.01,2013-04-29 16:03:00,
2013-04-29 09:08:00,54.3,24.4,29.71,NW,315,3.1,3.1,31,0.00,,---,0.00,VWS V14.01,2013-04-29 16:08:00,
2013-04-29 09:13:00,55.0,24.2,29.71,SW,225,5.6,5.6,30,0.00,,---,0.00,VWS V14.01,2013-04-29 16:13:00,
2013-04-29 09:18:00,54.5,22.1,29.71,West,270,11.0,11.0,28,0.00,,---,0.00,VWS V14.01,2013-04-29 16:18:00,
2013-04-29 09:23:00,54.3,21.9,29.71,WSW,248,6.0,6.0,28,0.00,,---,0.00,VWS V14.01,2013-04-29 16:23:00,
2013-04-29 09:28:00,55.0,21.7,29.71,West,270,9.8,9.8,27,0.00,,---,0.00,VWS V14.01,2013-04-29 16:28:00,
2013-04-29 09:33:00,55.4,22.0,29.71,WNW,292,9.0,9.0,27,0.00,,---,0.00,VWS V14.01,2013-04-29 16:33:00,
2013-04-29 09:38:00,56.7,22.2,29.71,West,270,4.3,4.3,26,0.00,,---,0.00,VWS V14.01,2013-04-29 16:38:00,
2013-04-29 09:44:00,57.0,22.5,29.71,NW,315,5.6,5.6,26,0.00,,---,0.00,VWS V14.01,2013-04-29 16:44:00,
2013-04-29 09:49:00,57.6,22.0,29.68,WNW,292,8.5,8.5,25,0.00,,---,0.00,VWS V14.01,2013-04-29 16:49:00,
2013-04-29 09:54:00,57.4,21.9,29.68,NNW,338,8.7,8.7,25,0.00,,---,0.00,VWS V14.01,2013-04-29 16:54:00,
2013-04-29 09:59:00,57.4,18.9,29.68,West,270,3.1,3.1,22,0.00,,---,0.00,VWS V14.01,2013-04-29 16:59:00,
2013-04-29 10:04:00,56.5,18.1,29.71,West,270,6.5,6.5,22,0.00,,---,0.00,VWS V14.01,2013-04-29 17:04:00,
2013-04-29 10:09:00,56.8,18.4,29.71,WNW,292,7.8,7.8,22,0.00,,---,0.00,VWS V14.01,2013-04-29 17:09:00,
2013-04-29 10:14:00,56.3,18.0,29.71,West,270,11.2,11.2,22,0.00,,---,0.00,VWS V14.01,2013-04-29 17:14:00,
2013-04-29 10:19:00,56.5,18.1,29.71,NNW,338,20.1,20.1,22,0.00,,---,0.00,VWS V14.01,2013-04-29 17:19:00,
2013-04-29 10:24:00,56.3,18.0,29.71,SW,225,7.6,7.6,22,0.00,,---,0.00,VWS V14.01,2013-04-29 17:24:00,
2013-04-29 10:29:00,57.0,18.6,29.71,WNW,292,4.0,4.0,22,0.00,,---,0.00,VWS V14.01,2013-04-29 17:29:00,
2013-04-29 10:34:00,56.5,18.1,29.74,West,270,9.6,9.6,22,0.00,,---,0.00,VWS V14.01,2013-04-29 17:34:00,
2013-04-29 10:39:00,56.5,15.9,29.74,NNW,338,15.2,15.2,20,0.00,,---,0.00,VWS V14.01,2013-04-29 17:39:00,
2013-04-29 10:44:00,56.1,15.6,29.74,West,270,19.7,19.7,20,0.00,,---,0.00,VWS V14.01,2013-04-29 17:44:00,
2013-04-29 10:49:00,56.3,15.8,29.74,WNW,292,8.5,8.5,20,0.00,,---,0.00,VWS V14.01,2013-04-29 17:49:00,
2013-04-29 10:54:00,57.2,18.7,29.74,West,270,6.5,6.5,22,0.00,,---,0.00,VWS V14.01,2013-04-29 17:54:00,
2013-04-29 10:59:00,57.2,18.7,29.74,West,270,5.6,5.6,22,0.00,,---,0.00,VWS V14.01,2013-04-29 17:59:00,
2013-04-29 11:05:00,57.9,19.3,29.74,NW,315,6.5,6.5,22,0.00,,---,0.00,VWS V14.01,2013-04-29 18:05:00,
2013-04-29 11:10:00,55.2,14.9,29.74,WSW,248,6.3,6.3,20,0.00,,---,0.00,VWS V14.01,2013-04-29 18:10:00,
2013-04-29 11:15:00,56.8,18.4,29.74,West,270,5.4,5.4,22,0.00,,---,0.00,VWS V14.01,2013-04-29 18:15:00,
2013-04-29 11:20:00,57.2,18.7,29.74,WNW,292,10.5,10.5,22,0.00,,---,0.00,VWS V14.01,2013-04-29 18:20:00,
2013-04-29 11:25:00,57.6,19.0,29.74,WSW,248,13.2,13.2,22,0.00,,---,0.00,VWS V14.01,2013-04-29 18:25:00,
2013-04-29 11:30:00,58.1,19.5,29.74,West,270,8.5,8.5,22,0.00,,---,0.00,VWS V14.01,2013-04-29 18:30:00,
2013-04-29 11:35:00,58.5,19.8,29.74,WSW,248,4.9,4.9,22,0.00,,---,0.00,VWS V14.01,2013-04-29 18:35:00,
2013-04-29 11:40:00,57.9,19.3,29.74,SW,225,6.5,6.5,22,0.00,,---,0.00,VWS V14.01,2013-04-29 18:40:00,
2013-04-29 11:45:00,56.8,18.4,29.74,WNW,292,6.3,6.3,22,0.00,,---,0.00,VWS V14.01,2013-04-29 18:45:00,
2013-04-29 11:50:00,57.7,19.2,29.74,West,270,6.5,6.5,22,0.00,,---,0.00,VWS V14.01,2013-04-29 18:50:00,
2013-04-29 11:55:00,57.9,15.9,29.74,NW,315,8.7,8.7,19,0.00,,---,0.00,VWS V14.01,2013-04-29 18:55:00,
2013-04-29 12:00:00,55.6,15.2,29.74,West,270,3.6,3.6,20,0.00,,---,0.00,VWS V14.01,2013-04-29 19:00:00,
2013-04-29 12:05:00,54.5,14.3,29.74,NW,315,8.7,8.7,20,0.00,,---,0.00,VWS V14.01,2013-04-29 19:05:00,
2013-04-29 12:10:00,55.2,18.1,29.74,WNW,292,6.0,6.0,23,0.00,,---,0.00,VWS V14.01,2013-04-29 19:10:00,
2013-04-29 12:16:00,55.9,17.7,29.74,NW,315,7.2,7.2,22,0.00,,---,0.00,VWS V14.01,2013-04-29 19:16:00,
2013-04-29 12:21:00,57.9,19.3,29.74,WNW,292,8.5,8.5,22,0.00,,---,0.00,VWS V14.01,2013-04-29 19:21:00,
2013-04-29 12:26:00,57.2,18.7,29.74,NW,315,8.1,8.1,22,0.00,,---,0.00,VWS V14.01,2013-04-29 19:26:00,
2013-04-29 12:31:00,58.1,19.5,29.74,SE,135,4.0,4.0,22,0.00,,---,0.00,VWS V14.01,2013-04-29 19:31:00,
2013-04-29 12:36:00,58.6,19.9,29.74,West,270,12.8,12.8,22,0.00,,---,0.00,VWS V14.01,2013-04-29 19:36:00,
2013-04-29 12:41:00,57.6,15.6,29.74,NNW,338,6.0,6.0,19,0.00,,---,0.00,VWS V14.01,2013-04-29 19:41:00,
2013-04-29 12:46:00,57.9,15.9,29.74,West,270,8.5,8.5,19,0.00,,---,0.00,VWS V14.01,2013-04-29 19:46:00,
2013-04-29 12:51:00,56.5,15.9,29.74,WNW,292,8.7,8.7,20,0.00,,---,0.00,VWS V14.01,2013-04-29 19:51:00,
2013-04-29 12:56:00,57.2,15.3,29.74,West,270,17.5,17.5,19,0.00,,---,0.00,VWS V14.01,2013-04-29 19:56:00,
2013-04-29 13:01:00,56.7,16.1,29.74,West,270,7.8,7.8,20,0.00,,---,0.00,VWS V14.01,2013-04-29 20:01:00,
2013-04-29 13:06:00,55.4,15.0,29.74,WSW,248,4.9,4.9,20,0.00,,---,0.00,VWS V14.01,2013-04-29 20:06:00,
2013-04-29 13:11:00,57.6,15.6,29.74,WNW,292,8.7,8.7,19,0.00,,---,0.00,VWS V14.01,2013-04-29 20:11:00,
2013-04-29 13:16:00,58.6,16.5,29.74,WNW,292,8.7,8.7,19,0.00,,---,0.00,VWS V14.01,2013-04-29 20:16:00,
2013-04-29 13:21:00,59.9,17.6,29.74,West,270,7.4,7.4,19,0.00,,---,0.00,VWS V14.01,2013-04-29 20:21:00,
2013-04-29 13:27:00,59.4,17.1,29.74,NNW,338,6.0,6.0,19,0.00,,---,0.00,VWS V14.01,2013-04-29 20:27:00,
2013-04-29 13:32:00,59.5,17.3,29.74,WSW,248,8.5,8.5,19,0.00,,---,0.00,VWS V14.01,2013-04-29 20:32:00,
2013-04-29 13:37:00,60.1,17.7,29.74,WNW,292,12.8,12.8,19,0.00,,---,0.00,VWS V14.01,2013-04-29 20:37:00,
2013-04-29 13:42:00,59.5,17.3,29.74,NNW,338,9.6,9.6,19,0.00,,---,0.00,VWS V14.01,2013-04-29 20:42:00,
2013-04-29 13:47:00,59.5,17.3,29.74,NW,315,6.3,6.3,19,0.00,,---,0.00,VWS V14.01,2013-04-29 20:47:00,
2013-04-29 13:52:00,60.8,18.3,29.74,WSW,248,5.6,5.6,19,0.00,,---,0.00,VWS V14.01,2013-04-29 20:52:00,
2013-04-29 13:57:00,59.4,17.1,29.74,WNW,292,6.5,6.5,19,0.00,,---,0.00,VWS V14.01,2013-04-29 20:57:00,
2013-04-29 14:02:00,59.0,16.8,29.74,NNW,338,9.2,9.2,19,0.00,,---,0.00,VWS V14.01,2013-04-29 21:02:00,
2013-04-29 14:07:00,58.3,22.6,29.74,NW,315,11.0,11.0,25,0.00,,---,0.00,VWS V14.01,2013-04-29 21:07:00,
2013-04-29 14:12:00,59.9,24.0,29.74,North,0,9.6,9.6,25,0.00,,---,0.00,VWS V14.01,2013-04-29 21:12:00,
2013-04-29 14:17:00,60.4,24.5,29.74,North,0,8.1,8.1,25,0.00,,---,0.00,VWS V14.01,2013-04-29 21:17:00,
2013-04-29 14:22:00,60.4,23.5,29.74,NNE,22,6.3,6.3,24,0.00,,---,0.00,VWS V14.01,2013-04-29 21:22:00,
2013-04-29 14:27:00,57.7,22.2,29.74,NW,315,6.0,6.0,25,0.00,,---,0.00,VWS V14.01,2013-04-29 21:27:00,
2013-04-29 14:32:00,56.7,21.3,29.74,NW,315,5.6,5.6,25,0.00,,---,0.00,VWS V14.01,2013-04-29 21:32:00,
2013-04-29 14:37:00,56.5,21.1,29.74,NNW,338,7.4,7.4,25,0.00,,---,0.00,VWS V14.01,2013-04-29 21:37:00,
2013-04-29 14:43:00,55.8,20.5,29.74,North,0,4.3,4.3,25,0.00,,---,0.00,VWS V14.01,2013-04-29 21:43:00,
2013-04-29 14:48:00,55.0,19.9,29.74,NNW,338,8.1,8.1,25,0.00,,---,0.00,VWS V14.01,2013-04-29 21:48:00,
2013-04-29 14:53:00,55.0,19.9,29.74,NW,315,14.5,14.5,25,0.00,,---,0.00,VWS V14.01,2013-04-29 21:53:00,
2013-04-29 14:58:00,55.0,17.9,29.74,NW,315,9.4,9.4,23,0.00,,---,0.00,VWS V14.01,2013-04-29 21:58:00,
2013-04-29 15:03:00,55.8,17.5,29.74,WNW,292,9.2,9.2,22,0.00,,---,0.00,VWS V14.01,2013-04-29 22:03:00,
2013-04-29 15:08:00,56.3,21.0,29.76,North,0,2.5,2.5,25,0.00,,---,0.00,VWS V14.01,2013-04-29 22:08:00,
2013-04-29 15:13:00,55.0,20.8,29.76,NW,315,3.1,3.1,26,0.00,,---,0.00,VWS V14.01,2013-04-29 22:13:00,
2013-04-29 15:18:00,55.2,21.0,29.76,NW,315,4.0,4.0,26,0.00,,---,0.00,VWS V14.01,2013-04-29 22:18:00,
2013-04-29 15:23:00,54.9,20.6,29.74,NNW,338,15.7,15.7,26,0.00,,---,0.00,VWS V14.01,2013-04-29 22:23:00,
2013-04-29 15:28:00,54.9,20.6,29.74,NNW,338,3.6,3.6,26,0.00,,---,0.00,VWS V14.01,2013-04-29 22:28:00,
2013-04-29 15:33:00,55.8,21.4,29.74,North,0,3.6,3.6,26,0.00,,---,0.00,VWS V14.01,2013-04-29 22:33:00,
2013-04-29 15:38:00,56.3,21.0,29.76,North,0,13.6,13.6,25,0.00,,---,0.00,VWS V14.01,2013-04-29 22:38:00,
2013-04-29 15:43:00,56.3,21.0,29.76,West,270,11.0,11.0,25,0.00,,---,0.00,VWS V14.01,2013-04-29 22:43:00,
2013-04-29 15:48:00,55.9,20.6,29.76,NNW,338,8.1,8.1,25,0.00,,---,0.00,VWS V14.01,2013-04-29 22:48:00,
2013-04-29 15:53:00,55.9,17.7,29.76,WSW,248,13.2,13.2,22,0.00,,---,0.00,VWS V14.01,2013-04-29 22:53:00,
2013-04-29 15:58:00,57.2,20.8,29.76,NNW,338,10.7,10.7,24,0.00,,---,0.00,VWS V14.01,2013-04-29 22:58:00,
2013-04-29 16:04:00,57.2,20.8,29.76,WNW,292,9.6,9.6,24,0.00,,---,0.00,VWS V14.01,2013-04-29 23:04:00,
2013-04-29 16:09:00,57.4,20.9,29.76,NNW,338,3.8,3.8,24,0.00,,---,0.00,VWS V14.01,2013-04-29 23:09:00,
2013-04-29 16:14:00,57.0,18.6,29.76,NW,315,11.0,11.0,22,0.00,,---,0.00,VWS V14.01,2013-04-29 23:14:00,
2013-04-29 16:19:00,57.0,18.6,29.76,West,270,3.6,3.6,22,0.00,,---,0.00,VWS V14.01,2013-04-29 23:19:00,
2013-04-29 16:24:00,57.7,19.2,29.76,West,270,7.8,7.8,22,0.00,,---,0.00,VWS V14.01,2013-04-29 23:24:00,
2013-04-29 16:29:00,57.2,18.7,29.76,NNW,338,7.8,7.8,22,0.00,,---,0.00,VWS V14.01,2013-04-29 23:29:00,
2013-04-29 16:34:00,57.7,19.2,29.76,NNW,338,9.8,9.8,22,0.00,,---,0.00,VWS V14.01,2013-04-29 23:34:00,
2013-04-29 16:39:00,57.7,19.2,29.76,West,270,7.4,7.4,22,0.00,,---,0.00,VWS V14.01,2013-04-29 23:39:00,
2013-04-29 16:44:00,59.0,20.2,29.76,West,270,14.1,14.1,22,0.00,,---,0.00,VWS V14.01,2013-04-29 23:44:00,
2013-04-29 16:49:00,58.6,16.5,29.76,WNW,292,8.7,8.7,19,0.00,,---,0.00,VWS V14.01,2013-04-29 23:49:00,
2013-04-29 16:54:00,57.9,15.9,29.76,West,270,10.3,10.3,19,0.00,,---,0.00,VWS V14.01,2013-04-29 23:54:00,
2013-04-29 16:59:00,57.7,15.8,29.76,NW,315,7.2,7.2,19,0.00,,---,0.00,VWS V14.01,2013-04-29 23:59:00,
2013-04-29 17:04:00,57.9,19.3,29.76,West,270,7.4,7.4,22,0.00,,---,0.00,VWS V14.01,2013-04-30 00:04:00,
2013-04-29 17:09:00,57.7,19.2,29.76,NW,315,4.7,4.7,22,0.00,,---,0.00,VWS V14.01,2013-04-30 00:09:00,
2013-04-29 17:15:00,57.6,19.0,29.76,NW,315,8.7,8.7,22,0.00,,---,0.00,VWS V14.01,2013-04-30 00:15:00,
2013-04-29 17:20:00,58.1,19.5,29.79,WNW,292,4.0,4.0,22,0.00,,---,0.00,VWS V14.01,2013-04-30 00:20:00,
2013-04-29 17:25:00,56.8,16.2,29.79,NNW,338,6.7,6.7,20,0.00,,---,0.00,VWS V14.01,2013-04-30 00:25:00,
2013-04-29 17:30:00,56.8,16.2,29.79,NW,315,5.6,5.6,20,0.00,,---,0.00,VWS V14.01,2013-04-30 00:30:00,
2013-04-29 17:35:00,56.5,15.9,29.79,NNW,338,7.8,7.8,20,0.00,,---,0.00,VWS V14.01,2013-04-30 00:35:00,
2013-04-29 17:40:00,56.7,16.1,29.79,NNW,338,7.8,7.8,20,0.00,,---,0.00,VWS V14.01,2013-04-30 00:40:00,
2013-04-29 17:45:00,55.4,15.0,29.79,NNW,338,6.3,6.3,20,0.00,,---,0.00,VWS V14.01,2013-04-30 00:45:00,
2013-04-29 17:50:00,53.6,13.5,29.82,NW,315,10.3,10.3,20,0.00,,---,0.00,VWS V14.01,2013-04-30 00:50:00,
2013-04-29 17:55:00,54.3,14.1,29.82,NW,315,7.4,7.4,20,0.00,,---,0.00,VWS V14.01,2013-04-30 00:55:00,
2013-04-29 18:00:00,54.1,14.0,29.82,NNW,338,7.2,7.2,20,0.00,,---,0.00,VWS V14.01,2013-04-30 01:00:00,
2013-04-29 18:05:00,54.5,14.3,29.79,NNW,338,12.3,12.3,20,0.00,,---,0.00,VWS V14.01,2013-04-30 01:05:00,
2013-04-29 18:10:00,54.5,14.3,29.79,WNW,292,3.4,3.4,20,0.00,,---,0.00,VWS V14.01,2013-04-30 01:10:00,
2013-04-29 18:15:00,54.7,14.4,29.79,West,270,5.6,5.6,20,0.00,,---,0.00,VWS V14.01,2013-04-30 01:15:00,
2013-04-29 18:20:00,54.3,14.1,29.82,NNW,338,4.9,4.9,20,0.00,,---,0.00,VWS V14.01,2013-04-30 01:20:00,
2013-04-29 18:25:00,53.8,13.7,29.82,WNW,292,5.4,5.4,20,0.00,,---,0.00,VWS V14.01,2013-04-30 01:25:00,
2013-04-29 18:31:00,54.1,14.0,29.82,WNW,292,8.5,8.5,20,0.00,,---,0.00,VWS V14.01,2013-04-30 01:31:00,
2013-04-29 18:36:00,54.5,14.3,29.82,NNW,338,7.4,7.4,20,0.00,,---,0.00,VWS V14.01,2013-04-30 01:36:00,
2013-04-29 18:41:00,54.5,14.3,29.82,NW,315,6.3,6.3,20,0.00,,---,0.00,VWS V14.01,2013-04-30 01:41:00,
2013-04-29 18:46:00,54.7,14.4,29.82,West,270,4.0,4.0,20,0.00,,---,0.00,VWS V14.01,2013-04-30 01:46:00,
2013-04-29 18:51:00,54.5,14.3,29.79,WSW,248,4.0,4.0,20,0.00,,---,0.00,VWS V14.01,2013-04-30 01:51:00,
2013-04-29 18:56:00,54.1,14.0,29.79,NW,315,4.3,4.3,20,0.00,,---,0.00,VWS V14.01,2013-04-30 01:56:00,
2013-04-29 19:01:00,53.6,13.5,29.79,NW,315,3.1,3.1,20,0.00,,---,0.00,VWS V14.01,2013-04-30 02:01:00,
2013-04-29 19:06:00,52.7,13.9,29.82,NNW,338,14.3,14.3,21,0.00,,---,0.00,VWS V14.01,2013-04-30 02:06:00,
2013-04-29 19:11:00,52.3,15.7,29.82,NW,315,5.8,5.8,23,0.00,,---,0.00,VWS V14.01,2013-04-30 02:11:00,
2013-04-29 19:16:00,51.3,15.7,29.82,NW,315,8.5,8.5,24,0.00,,---,0.00,VWS V14.01,2013-04-30 02:16:00,
2013-04-29 19:21:00,50.7,15.3,29.82,WNW,292,3.6,3.6,24,0.00,,---,0.00,VWS V14.01,2013-04-30 02:21:00,
2013-04-29 19:26:00,50.2,14.8,29.82,WNW,292,3.6,3.6,24,0.00,,---,0.00,VWS V14.01,2013-04-30 02:26:00,
2013-04-29 19:31:00,49.8,14.5,29.82,West,270,3.4,3.4,24,0.00,,---,0.00,VWS V14.01,2013-04-30 02:31:00,
2013-04-29 19:36:00,49.5,14.2,29.82,NW,315,3.4,3.4,24,0.00,,---,0.00,VWS V14.01,2013-04-30 02:36:00,
2013-04-29 19:41:00,49.3,15.9,29.82,WSW,248,2.5,2.5,26,0.00,,---,0.00,VWS V14.01,2013-04-30 02:41:00,
2013-04-29 19:47:00,48.9,15.6,29.82,NW,315,12.3,12.3,26,0.00,,---,0.00,VWS V14.01,2013-04-30 02:47:00,
2013-04-29 19:52:00,48.7,15.4,29.85,NNW,338,10.5,10.5,26,0.00,,---,0.00,VWS V14.01,2013-04-30 02:52:00,
2013-04-29 19:57:00,48.7,15.4,29.85,WNW,292,3.1,3.1,26,0.00,,---,0.00,VWS V14.01,2013-04-30 02:57:00,
2013-04-29 20:02:00,48.6,15.2,29.85,NNW,338,7.4,7.4,26,0.00,,---,0.00,VWS V14.01,2013-04-30 03:02:00,
2013-04-29 20:07:00,48.4,15.1,29.85,WNW,292,3.8,3.8,26,0.00,,---,0.00,VWS V14.01,2013-04-30 03:07:00,
2013-04-29 20:12:00,48.4,15.1,29.85,NNW,338,3.6,3.6,26,0.00,,---,0.00,VWS V14.01,2013-04-30 03:12:00,
2013-04-29 20:17:00,48.4,16.0,29.85,NW,315,3.6,3.6,27,0.00,,---,0.00,VWS V14.01,2013-04-30 03:17:00,
2013-04-29 20:22:00,48.2,15.8,29.85,NW,315,1.6,1.6,27,0.00,,---,0.00,VWS V14.01,2013-04-30 03:22:00,
2013-04-29 20:27:00,48.2,15.8,29.85,WNW,292,2.5,2.5,27,0.00,,---,0.00,VWS V14.01,2013-04-30 03:27:00,
2013-04-29 20:32:00,48.0,15.6,29.85,WNW,292,2.7,2.7,27,0.00,,---,0.00,VWS V14.01,2013-04-30 03:32:00,
2013-04-29 20:37:00,48.0,15.6,29.88,NW,315,2.7,2.7,27,0.00,,---,0.00,VWS V14.01,2013-04-30 03:37:00,
2013-04-29 20:42:00,47.8,15.5,29.88,WNW,292,4.3,4.3,27,0.00,,---,0.00,VWS V14.01,2013-04-30 03:42:00,
2013-04-29 20:47:00,47.7,15.3,29.88,NW,315,4.0,4.0,27,0.00,,---,0.00,VWS V14.01,2013-04-30 03:47:00,
2013-04-29 20:52:00,47.7,15.3,29.88,NW,315,3.1,3.1,27,0.00,,---,0.00,VWS V14.01,2013-04-30 03:52:00,
2013-04-29 20:57:00,47.7,15.3,29.88,WNW,292,2.2,2.2,27,0.00,,---,0.00,VWS V14.01,2013-04-30 03:57:00,
2013-04-29 21:01:00,47.5,15.2,29.88,NNW,338,4.3,4.3,27,0.00,,---,0.00,VWS V14.01,2013-04-30 04:01:00,
2013-04-29 21:02:00,47.5,15.2,29.88,WNW,292,3.1,3.1,27,0.00,,---,0.00,VWS V14.01,2013-04-30 04:02:00,
2013-04-29 21:07:00,47.5,15.2,29.88,WNW,292,3.6,3.6,27,0.00,,---,0.00,VWS V14.01,2013-04-30 04:07:00,
2013-04-29 21:12:00,47.3,15.0,29.88,NNW,338,3.6,3.6,27,0.00,,---,0.00,VWS V14.01,2013-04-30 04:12:00,
2013-04-29 21:17:00,47.3,15.0,29.88,NW,315,3.1,3.1,27,0.00,,---,0.00,VWS V14.01,2013-04-30 04:17:00,
2013-04-29 21:22:00,47.1,14.9,29.88,NNW,338,7.4,7.4,27,0.00,,---,0.00,VWS V14.01,2013-04-30 04:22:00,
2013-04-29 21:27:00,47.1,14.9,29.88,WNW,292,6.3,6.3,27,0.00,,---,0.00,VWS V14.01,2013-04-30 04:27:00,
2013-04-29 21:32:00,46.9,15.6,29.88,NW,315,3.6,3.6,28,0.00,,---,0.00,VWS V14.01,2013-04-30 04:32:00,
2013-04-29 21:37:00,46.9,15.6,29.88,NW,315,3.4,3.4,28,0.00,,---,0.00,VWS V14.01,2013-04-30 04:37:00,
2013-04-29 21:42:00,46.9,15.6,29.88,NW,315,2.5,2.5,28,0.00,,---,0.00,VWS V14.01,2013-04-30 04:42:00,
2013-04-29 21:47:00,46.9,15.6,29.88,NW,315,5.6,5.6,28,0.00,,---,0.00,VWS V14.01,2013-04-30 04:47:00,
2013-04-29 21:52:00,46.8,15.4,29.88,NNW,338,3.6,3.6,28,0.00,,---,0.00,VWS V14.01,2013-04-30 04:52:00,
2013-04-29 21:58:00,46.6,15.2,29.88,West,270,6.0,6.0,28,0.00,,---,0.00,VWS V14.01,2013-04-30 04:58:00,
2013-04-29 22:03:00,46.4,15.1,29.88,NNW,338,0.0,0.0,28,0.00,,---,0.00,VWS V14.01,2013-04-30 05:03:00,
2013-04-29 22:08:00,46.0,14.8,29.88,NNE,22,3.8,3.8,28,0.00,,---,0.00,VWS V14.01,2013-04-30 05:08:00,
2013-04-29 22:13:00,45.7,14.5,29.88,NW,315,0.0,0.0,28,0.00,,---,0.00,VWS V14.01,2013-04-30 05:13:00,
2013-04-29 22:18:00,45.5,15.1,29.88,NNW,338,0.0,0.0,29,0.00,,---,0.00,VWS V14.01,2013-04-30 05:18:00,
2013-04-29 22:23:00,45.5,15.1,29.88,NW,315,0.0,0.0,29,0.00,,---,0.00,VWS V14.01,2013-04-30 05:23:00,
2013-04-29 22:28:00,45.5,15.1,29.88,WNW,292,2.9,2.9,29,0.00,,---,0.00,VWS V14.01,2013-04-30 05:28:00,
2013-04-29 22:33:00,45.5,15.1,29.88,NNW,338,1.6,1.6,29,0.00,,---,0.00,VWS V14.01,2013-04-30 05:33:00,
2013-04-29 22:38:00,45.5,15.1,29.88,NNW,338,1.3,1.3,29,0.00,,---,0.00,VWS V14.01,2013-04-30 05:38:00,
2013-04-29 22:43:00,45.3,14.9,29.88,SSW,202,2.7,2.7,29,0.00,,---,0.00,VWS V14.01,2013-04-30 05:43:00,
2013-04-29 22:48:00,45.1,14.8,29.88,West,270,2.2,2.2,29,0.00,,---,0.00,VWS V14.01,2013-04-30 05:48:00,
2013-04-29 22:53:00,45.0,14.6,29.88,WSW,248,2.9,2.9,29,0.00,,---,0.00,VWS V14.01,2013-04-30 05:53:00,
2013-04-29 22:58:00,44.6,14.3,29.88,WSW,248,2.7,2.7,29,0.00,,---,0.00,VWS V14.01,2013-04-30 05:58:00,
2013-04-29 23:03:00,44.4,14.9,29.88,SW,225,0.0,0.0,30,0.00,,---,0.00,VWS V14.01,2013-04-30 06:03:00,
2013-04-29 23:08:00,43.9,14.5,29.88,WSW,248,2.5,2.5,30,0.00,,---,0.00,VWS V14.01,2013-04-30 06:08:00,
2013-04-29 23:13:00,43.7,14.3,29.88,SW,225,0.0,0.0,30,0.00,,---,0.00,VWS V14.01,2013-04-30 06:13:00,
2013-04-29 23:18:00,42.8,13.5,29.88,WSW,248,4.9,4.9,30,0.00,,---,0.00,VWS V14.01,2013-04-30 06:18:00,
2013-04-29 23:23:00,42.1,13.6,29.88,WSW,248,3.4,3.4,31,0.00,,---,0.00,VWS V14.01,2013-04-30 06:23:00,
2013-04-29 23:28:00,41.7,13.3,29.88,WSW,248,0.0,0.0,31,0.00,,---,0.00,VWS V14.01,2013-04-30 06:28:00,
2013-04-29 23:33:00,41.4,13.0,29.88,SW,225,4.0,4.0,31,0.00,,---,0.00,VWS V14.01,2013-04-30 06:33:00,
2013-04-29 23:38:00,41.2,12.9,29.91,WSW,248,3.1,3.1,31,0.00,,---,0.00,VWS V14.01,2013-04-30 06:38:00,
2013-04-29 23:43:00,40.8,13.3,29.91,SW,225,5.6,5.6,32,0.00,,---,0.00,VWS V14.01,2013-04-30 06:43:00,
2013-04-29 23:48:00,40.6,13.1,29.91,SW,225,4.0,4.0,32,0.00,,---,0.00,VWS V14.01,2013-04-30 06:48:00,
2013-04-29 23:54:00,40.6,13.1,29.91,SW,225,3.4,3.4,32,0.00,,---,0.00,VWS V14.01,2013-04-30 06:54:00,
2013-04-29 23:59:00,40.6,13.8,29.91,West,270,1.6,1.6,33,0.00,,---,0.00,VWS V14.01,2013-04-30 06:59:00,